Time;durP1;ratioP1;P1;durP2;ratioP2;P2;SDS_P1;SDS_P2;PMS_P1;PMS_P2;Temp;Humidity;BMP_temperature;BMP_pressure;BME280_temperature;BME280_humidity;BME280_pressure;Samples;Min_cycle;Max_cycle;Signal;HPM_P1;HPM_P2
2022/11/29 00:01:12;;;;;;;13.87;11.60;;;3.70;99.90;;;;;;5091457;28;20465;-49
2022/11/29 00:03:39;;;;;;;13.17;11.77;;;3.80;99.90;;;;;;5091085;28;20934;-49
2022/11/29 00:06:07;;;;;;;14.97;12.60;;;3.80;99.90;;;;;;5090982;28;20811;-50
2022/11/29 00:08:35;;;;;;;15.53;12.53;;;3.90;99.90;;;;;;5091025;28;21071;-49
2022/11/29 00:11:07;;;;;;;16.77;14.37;;;3.90;99.90;;;;;;5090787;28;21052;-48
2022/11/29 00:13:35;;;;;;;17.70;14.57;;;3.90;99.90;;;;;;5091011;28;20528;-49
2022/11/29 00:16:03;;;;;;;14.50;13.10;;;3.90;99.90;;;;;;5091225;28;20533;-50
2022/11/29 00:18:30;;;;;;;15.00;13.50;;;3.90;99.90;;;;;;5091217;28;20443;-49
2022/11/29 00:20:57;;;;;;;15.27;13.50;;;3.80;99.90;;;;;;5090853;28;20836;-48
2022/11/29 00:23:23;;;;;;;15.83;13.60;;;3.80;99.90;;;;;;5089836;28;20481;-48
2022/11/29 00:25:50;;;;;;;16.30;14.00;;;3.70;99.90;;;;;;5090799;28;20451;-48
2022/11/29 00:28:19;;;;;;;14.90;13.03;;;3.80;99.90;;;;;;5090808;28;20530;-48
2022/11/29 00:30:46;;;;;;;15.33;13.50;;;3.80;99.90;;;;;;5090410;28;22050;-48
2022/11/29 00:33:12;;;;;;;14.67;13.07;;;3.80;99.90;;;;;;5090457;28;20440;-50
2022/11/29 00:35:39;;;;;;;19.57;13.30;;;3.80;99.90;;;;;;5089959;28;20965;-48
2022/11/29 00:38:06;;;;;;;16.43;13.73;;;3.80;99.90;;;;;;5090732;28;20441;-49
2022/11/29 00:40:33;;;;;;;14.97;13.37;;;3.90;99.90;;;;;;5090425;28;20449;-51
2022/11/29 00:43:00;;;;;;;14.27;12.77;;;3.80;99.90;;;;;;5090599;28;20480;-48
2022/11/29 00:45:28;;;;;;;14.80;13.30;;;3.80;99.90;;;;;;5094139;28;20451;-48
2022/11/29 00:47:54;;;;;;;14.63;13.27;;;3.90;99.90;;;;;;5094046;28;20437;-48
2022/11/29 00:50:21;;;;;;;14.63;13.00;;;3.90;99.90;;;;;;5093680;28;20998;-51
2022/11/29 00:52:48;;;;;;;15.20;13.00;;;3.90;99.90;;;;;;5094306;28;20459;-49
2022/11/29 00:55:15;;;;;;;14.67;13.17;;;3.80;99.90;;;;;;5094091;28;20536;-49
2022/11/29 00:57:42;;;;;;;14.13;12.63;;;3.90;99.90;;;;;;5094157;28;20442;-49
2022/11/29 01:00:10;;;;;;;13.80;12.60;;;3.90;99.90;;;;;;5093920;28;20524;-50
2022/11/29 01:02:38;;;;;;;14.03;12.60;;;3.80;99.90;;;;;;5094127;28;20527;-49
2022/11/29 01:05:05;;;;;;;15.57;13.93;;;3.80;99.90;;;;;;5094142;28;20814;-48
2022/11/29 01:07:32;;;;;;;13.63;12.23;;;3.80;99.90;;;;;;5093868;28;21163;-48
2022/11/29 01:09:59;;;;;;;14.27;12.77;;;3.80;99.90;;;;;;5093601;28;20443;-49
2022/11/29 01:12:26;;;;;;;15.23;13.63;;;3.80;99.90;;;;;;5093572;28;21004;-48
2022/11/29 01:14:53;;;;;;;14.50;13.03;;;3.80;99.90;;;;;;5093695;28;20952;-48
2022/11/29 01:17:19;;;;;;;14.33;12.87;;;3.80;99.90;;;;;;5093903;28;20441;-50
2022/11/29 01:19:48;;;;;;;13.43;12.13;;;3.90;99.90;;;;;;5094052;28;20534;-48
2022/11/29 01:22:14;;;;;;;14.30;12.87;;;3.80;99.90;;;;;;5093303;28;20472;-48
2022/11/29 01:24:41;;;;;;;17.60;13.03;;;3.90;99.90;;;;;;5093278;28;20449;-49
2022/11/29 01:27:08;;;;;;;14.17;12.77;;;3.90;99.90;;;;;;5093841;28;20532;-50
2022/11/29 01:29:35;;;;;;;14.40;12.70;;;3.90;99.90;;;;;;5093838;28;20456;-48
2022/11/29 01:32:02;;;;;;;15.17;13.70;;;4.00;99.90;;;;;;5093111;28;20469;-51
2022/11/29 01:34:29;;;;;;;15.23;13.70;;;4.00;99.90;;;;;;5093678;28;20531;-49
2022/11/29 01:36:57;;;;;;;14.13;12.70;;;4.00;99.90;;;;;;5093419;28;20892;-48
2022/11/29 01:39:24;;;;;;;15.03;13.53;;;4.00;99.90;;;;;;5093733;28;20527;-48
2022/11/29 01:41:51;;;;;;;16.33;13.17;;;4.00;99.90;;;;;;5093257;28;20545;-50
2022/11/29 01:45:06;;;;;;;13.27;12.07;;;4.00;99.90;;;;;;5093308;28;20476;-49
2022/11/29 01:47:36;;;;;;;14.77;13.27;;;4.00;99.90;;;;;;5030681;28;20491;-50
2022/11/29 01:50:03;;;;;;;15.37;13.60;;;4.00;99.90;;;;;;5079336;28;20852;-48
2022/11/29 01:52:33;;;;;;;14.50;13.03;;;4.00;99.90;;;;;;5093385;28;20465;-48
2022/11/29 01:55:04;;;;;;;19.67;14.97;;;4.10;99.90;;;;;;5092401;28;20468;-49
2022/11/29 01:57:35;;;;;;;14.10;12.77;;;4.00;99.90;;;;;;5092784;28;20891;-48
2022/11/29 02:00:06;;;;;;;15.90;14.13;;;4.00;99.90;;;;;;5092797;28;20809;-48
2022/11/29 02:02:36;;;;;;;19.83;14.80;;;4.00;99.90;;;;;;5093093;28;20487;-48
2022/11/29 02:05:05;;;;;;;15.07;13.67;;;4.00;99.90;;;;;;5092865;28;20445;-48
2022/11/29 02:07:33;;;;;;;15.00;13.50;;;3.90;99.90;;;;;;5093109;28;20531;-49
2022/11/29 02:10:01;;;;;;;15.90;14.40;;;3.90;99.90;;;;;;5092904;28;20535;-48
2022/11/29 02:12:38;;;;;;;17.67;14.40;;;3.90;99.90;;;;;;5092856;28;20900;-48
2022/11/29 02:15:21;;;;;;;16.80;13.23;;;3.90;99.90;;;;;;5092411;28;20860;-48
2022/11/29 02:18:02;;;;;;;15.50;14.00;;;3.80;99.90;;;;;;5091569;28;20521;-49
2022/11/29 02:21:02;;;;;;;15.07;13.50;;;3.80;99.90;;;;;;5092295;28;20986;-48
2022/11/29 02:24:00;;;;;;;14.67;13.27;;;3.80;99.90;;;;;;5076798;28;20993;-48
2022/11/29 02:26:54;;;;;;;18.23;16.33;;;3.80;99.90;;;;;;5092721;28;20479;-49
2022/11/29 02:29:37;;;;;;;16.17;14.57;;;3.80;99.90;;;;;;5092782;28;20530;-49
2022/11/29 02:32:58;;;;;;;16.60;14.90;;;3.70;99.90;;;;;;5093562;28;20564;-51
2022/11/29 02:35:41;;;;;;;16.20;14.60;;;3.80;99.90;;;;;;5092430;28;20438;-50
2022/11/29 02:38:25;;;;;;;15.10;13.50;;;3.80;99.90;;;;;;5092370;28;20498;-50
2022/11/29 02:41:18;;;;;;;15.33;13.70;;;3.90;99.90;;;;;;5092027;28;20461;-49
2022/11/29 02:44:14;;;;;;;14.10;12.63;;;3.90;99.90;;;;;;5092106;28;20476;-51
2022/11/29 02:47:02;;;;;;;15.20;13.70;;;3.90;99.90;;;;;;5089690;28;20528;-49
2022/11/29 02:49:47;;;;;;;14.73;13.00;;;3.90;99.90;;;;;;5092381;28;20527;-51
2022/11/29 02:52:20;;;;;;;14.77;13.30;;;3.90;99.90;;;;;;5091972;28;20564;-49
2022/11/29 02:54:54;;;;;;;15.37;13.87;;;3.90;99.90;;;;;;5091994;28;20944;-48
2022/11/29 02:57:27;;;;;;;14.03;12.67;;;3.90;99.90;;;;;;5092165;28;20441;-49
2022/11/29 03:00:03;;;;;;;14.67;13.37;;;3.90;99.90;;;;;;5092060;28;20528;-48
2022/11/29 03:02:38;;;;;;;16.20;14.60;;;3.90;99.90;;;;;;5092270;28;20467;-49
2022/11/29 03:05:17;;;;;;;15.90;14.50;;;4.00;99.90;;;;;;5091623;28;21004;-48
2022/11/29 03:07:53;;;;;;;17.20;14.47;;;4.00;99.90;;;;;;5091744;28;20530;-48
2022/11/29 03:10:29;;;;;;;15.27;13.63;;;4.00;99.90;;;;;;5091701;28;20435;-48
2022/11/29 03:12:57;;;;;;;18.60;14.03;;;4.00;99.90;;;;;;5091659;28;20439;-48
2022/11/29 03:15:29;;;;;;;15.30;13.67;;;3.90;99.90;;;;;;5092050;28;20532;-49
2022/11/29 03:18:20;;;;;;;13.67;12.33;;;3.90;99.90;;;;;;5073277;28;20535;-48
2022/11/29 03:21:00;;;;;;;16.10;14.50;;;3.90;99.90;;;;;;5088104;28;20465;-49
2022/11/29 03:23:33;;;;;;;16.67;14.93;;;3.90;99.90;;;;;;5091365;28;20548;-48
2022/11/29 03:26:06;;;;;;;17.10;14.43;;;3.90;99.90;;;;;;5091218;28;20548;-48
2022/11/29 03:28:38;;;;;;;17.07;14.97;;;3.90;99.90;;;;;;5091826;28;20824;-48
2022/11/29 03:31:12;;;;;;;16.03;14.43;;;3.90;99.90;;;;;;5091542;28;20658;-49
2022/11/29 03:33:50;;;;;;;15.07;13.50;;;3.90;99.90;;;;;;5091270;28;20441;-50
2022/11/29 03:36:27;;;;;;;17.30;15.47;;;3.90;99.90;;;;;;5091669;28;20440;-49
2022/11/29 03:38:58;;;;;;;15.60;14.13;;;3.90;99.90;;;;;;5071424;28;20530;-49
2022/11/29 03:41:30;;;;;;;15.27;13.80;;;3.90;99.90;;;;;;5084785;28;20463;-48
2022/11/29 03:44:02;;;;;;;16.07;14.50;;;3.90;99.90;;;;;;5091179;28;20606;-48
2022/11/29 03:46:34;;;;;;;15.10;13.50;;;3.90;99.90;;;;;;5090864;28;20527;-49
2022/11/29 03:49:04;;;;;;;13.73;11.60;;;3.90;99.90;;;;;;5091879;28;20524;-46
2022/11/29 03:51:46;;;;;;;16.37;14.73;;;3.90;99.90;;;;;;5090969;28;21080;-46
2022/11/29 03:54:17;;;;;;;14.77;13.30;;;4.00;99.90;;;;;;5091065;28;20543;-48
2022/11/29 03:56:44;;;;;;;14.53;13.23;;;4.00;99.90;;;;;;5090997;28;20445;-47
2022/11/29 03:59:24;;;;;;;14.37;12.97;;;4.00;99.90;;;;;;5091371;28;20828;-47
2022/11/29 04:02:28;;;;;;;14.80;13.10;;;4.00;99.90;;;;;;5090998;28;20473;-46
2022/11/29 04:05:36;;;;;;;15.10;13.23;;;4.10;99.90;;;;;;5060090;28;20480;-49
2022/11/29 04:08:42;;;;;;;14.50;13.10;;;4.10;99.90;;;;;;5090940;28;20522;-43
2022/11/29 04:11:32;;;;;;;17.10;13.70;;;4.00;99.90;;;;;;5090868;28;20489;-47
2022/11/29 04:14:24;;;;;;;16.13;14.50;;;4.10;99.90;;;;;;5091022;28;20438;-47
2022/11/29 04:17:29;;;;;;;17.10;15.07;;;4.10;99.90;;;;;;5090856;28;21058;-47
2022/11/29 04:20:29;;;;;;;15.33;13.73;;;4.10;99.90;;;;;;5093681;28;21002;-47
2022/11/29 04:23:42;;;;;;;15.10;13.53;;;4.00;99.90;;;;;;5092143;28;20454;-50
2022/11/29 04:26:32;;;;;;;15.97;14.37;;;4.00;99.90;;;;;;5094690;28;20439;-49
2022/11/29 04:29:13;;;;;;;14.17;12.87;;;4.00;99.90;;;;;;5094481;28;20909;-49
2022/11/29 04:31:56;;;;;;;12.47;11.37;;;4.00;99.90;;;;;;5094468;28;20469;-47
2022/11/29 04:35:08;;;;;;;13.67;11.90;;;4.00;99.90;;;;;;5094761;28;20875;-46
2022/11/29 04:38:00;;;;;;;16.53;11.77;;;4.00;99.90;;;;;;5093544;28;20535;-46
2022/11/29 04:40:43;;;;;;;14.23;12.93;;;4.00;99.90;;;;;;5078584;28;20527;-47
2022/11/29 04:43:30;;;;;;;14.07;12.77;;;4.10;99.90;;;;;;5079295;28;20433;-46
2022/11/29 04:46:37;;;;;;;12.80;11.57;;;4.00;99.90;;;;;;5094749;28;20527;-47
2022/11/29 04:49:22;;;;;;;13.87;12.50;;;4.00;99.90;;;;;;5092596;28;20991;-46
2022/11/29 04:52:18;;;;;;;12.90;11.67;;;3.90;99.90;;;;;;5094592;28;20460;-47
2022/11/29 04:54:49;;;;;;;14.60;13.20;;;3.90;99.90;;;;;;5067748;28;20443;-48
2022/11/29 04:57:27;;;;;;;13.20;11.90;;;3.90;99.90;;;;;;5074662;28;20536;-46
2022/11/29 05:00:05;;;;;;;14.40;12.70;;;3.90;99.90;;;;;;5074417;28;20508;-47
2022/11/29 05:02:36;;;;;;;15.03;13.47;;;4.00;99.90;;;;;;5074232;28;20892;-48
2022/11/29 05:05:14;;;;;;;15.17;13.60;;;4.00;99.90;;;;;;5072652;28;20494;-46
2022/11/29 05:07:48;;;;;;;14.50;13.20;;;4.00;99.90;;;;;;5092740;28;20532;-47
2022/11/29 05:10:24;;;;;;;15.57;14.07;;;3.90;99.90;;;;;;5093350;28;20793;-47
2022/11/29 05:12:59;;;;;;;15.40;13.93;;;4.00;99.90;;;;;;5092349;28;20530;-45
2022/11/29 05:15:52;;;;;;;16.93;15.20;;;4.00;99.90;;;;;;5093312;28;20527;-48
2022/11/29 05:18:27;;;;;;;15.93;14.37;;;4.00;99.90;;;;;;5093169;28;20531;-49
2022/11/29 05:21:03;;;;;;;16.40;14.23;;;4.00;99.90;;;;;;5093197;28;20539;-46
2022/11/29 05:23:42;;;;;;;15.70;14.00;;;4.00;99.90;;;;;;5092318;28;20558;-46
2022/11/29 05:26:14;;;;;;;15.30;13.87;;;4.00;99.90;;;;;;5092743;28;20548;-46
2022/11/29 05:28:52;;;;;;;15.97;14.57;;;4.00;99.90;;;;;;5093160;28;20537;-50
2022/11/29 05:31:27;;;;;;;18.47;13.63;;;4.00;99.90;;;;;;5091145;28;20473;-46
2022/11/29 05:34:18;;;;;;;15.30;13.73;;;4.00;99.90;;;;;;5087645;28;20429;-47
2022/11/29 05:36:55;;;;;;;14.13;12.83;;;4.00;99.90;;;;;;5092987;28;20473;-47
2022/11/29 05:39:36;;;;;;;14.50;13.30;;;3.90;99.90;;;;;;5077887;28;21029;-46
2022/11/29 05:42:23;;;;;;;13.20;11.90;;;3.90;99.90;;;;;;5072721;28;20544;-46
2022/11/29 05:44:57;;;;;;;12.70;11.60;;;4.00;99.90;;;;;;5072351;28;20559;-50
2022/11/29 05:47:35;;;;;;;12.50;11.40;;;4.00;99.90;;;;;;5090923;28;20541;-47
2022/11/29 05:50:10;;;;;;;15.47;12.80;;;4.00;99.90;;;;;;5092309;28;20528;-46
2022/11/29 05:52:49;;;;;;;13.37;12.00;;;4.00;99.90;;;;;;5092153;28;20555;-46
2022/11/29 05:55:24;;;;;;;13.57;11.60;;;4.00;99.90;;;;;;5087633;28;21135;-46
2022/11/29 05:57:57;;;;;;;11.33;10.33;;;4.00;99.90;;;;;;5092022;28;20467;-48
2022/11/29 06:00:29;;;;;;;9.60;8.70;;;4.00;99.90;;;;;;5091967;28;20518;-48
2022/11/29 06:03:03;;;;;;;11.80;10.20;;;4.00;99.90;;;;;;5078322;28;20491;-46
2022/11/29 06:05:35;;;;;;;9.50;8.60;;;4.00;99.90;;;;;;5073150;28;20483;-48
2022/11/29 06:08:07;;;;;;;7.83;7.07;;;4.00;99.90;;;;;;5076197;28;20517;-50
2022/11/29 06:10:39;;;;;;;8.83;7.93;;;4.00;99.90;;;;;;5092636;28;20441;-47
2022/11/29 06:13:17;;;;;;;9.00;8.20;;;4.00;99.90;;;;;;5092739;28;20440;-47
2022/11/29 06:16:27;;;;;;;6.83;6.23;;;4.00;99.90;;;;;;5092850;28;20445;-50
2022/11/29 06:19:23;;;;;;;5.33;4.83;;;4.10;99.90;;;;;;5092015;28;20955;-49
2022/11/29 06:21:59;;;;;;;2.10;1.90;;;4.10;99.90;;;;;;5090586;28;20456;-48
2022/11/29 06:24:39;;;;;;;2.23;2.00;;;4.10;99.90;;;;;;5091897;28;20484;-48
2022/11/29 06:27:28;;;;;;;4.03;3.53;;;4.10;99.90;;;;;;5091647;28;20449;-48
2022/11/29 06:30:02;;;;;;;3.10;2.80;;;4.00;99.90;;;;;;5086178;28;20453;-48
2022/11/29 06:32:39;;;;;;;2.80;2.60;;;4.00;99.90;;;;;;5070611;28;20904;-47
2022/11/29 06:35:10;;;;;;;2.80;2.50;;;4.10;99.90;;;;;;5088144;28;20446;-49
2022/11/29 06:37:40;;;;;;;5.67;4.67;;;4.10;99.90;;;;;;5076884;28;20450;-47
2022/11/29 06:40:11;;;;;;;6.50;5.47;;;4.10;99.90;;;;;;5088068;28;20536;-48
2022/11/29 06:42:38;;;;;;;5.10;4.60;;;4.00;99.90;;;;;;5090933;28;20544;-49
2022/11/29 06:45:06;;;;;;;8.60;6.70;;;4.00;99.90;;;;;;5081890;28;20488;-48
2022/11/29 06:47:41;;;;;;;7.77;6.07;;;4.10;99.90;;;;;;5091124;28;21058;-48
2022/11/29 06:50:26;;;;;;;6.57;5.57;;;4.10;99.90;;;;;;5091066;28;20855;-48
2022/11/29 06:53:00;;;;;;;9.90;7.20;;;4.00;99.90;;;;;;5090875;28;20446;-47
2022/11/29 06:55:33;;;;;;;22.00;13.47;;;4.00;99.90;;;;;;5091279;28;20533;-48
2022/11/29 06:58:10;;;;;;;10.37;7.13;;;4.00;99.90;;;;;;5090641;28;20442;-47
2022/11/29 07:00:43;;;;;;;7.70;4.97;;;4.00;99.90;;;;;;5090566;28;20440;-48
2022/11/29 07:03:34;;;;;;;2.40;2.10;;;4.00;99.90;;;;;;5085784;28;20925;-47
2022/11/29 07:06:08;;;;;;;2.87;2.50;;;4.10;99.90;;;;;;5070736;28;20516;-50
2022/11/29 07:08:36;;;;;;;2.27;2.07;;;4.10;99.90;;;;;;5090257;28;20533;-51
2022/11/29 07:11:03;;;;;;;2.40;2.20;;;4.10;99.90;;;;;;5090663;28;20543;-47
2022/11/29 07:13:30;;;;;;;3.23;2.93;;;4.10;99.90;;;;;;5090729;28;20525;-48
2022/11/29 07:16:13;;;;;;;5.00;4.50;;;4.10;99.90;;;;;;5091323;28;20758;-47
2022/11/29 07:18:48;;;;;;;6.23;4.60;;;4.10;99.90;;;;;;5090036;28;20848;-48
2022/11/29 07:21:36;;;;;;;6.80;5.57;;;4.10;99.90;;;;;;5090895;28;21004;-47
2022/11/29 07:24:16;;;;;;;8.67;7.40;;;4.10;99.90;;;;;;5070376;28;20563;-47
2022/11/29 07:26:51;;;;;;;9.07;7.30;;;4.10;99.90;;;;;;5077636;28;20447;-47
2022/11/29 07:29:29;;;;;;;9.47;7.70;;;4.10;99.90;;;;;;5090709;28;20441;-49
2022/11/29 07:32:05;;;;;;;13.33;11.53;;;4.10;99.90;;;;;;5089661;28;20487;-49
2022/11/29 07:34:40;;;;;;;10.53;8.53;;;4.10;99.90;;;;;;5089728;28;20948;-48
2022/11/29 07:37:12;;;;;;;6.93;5.57;;;4.10;99.90;;;;;;5090524;28;20445;-48
2022/11/29 07:39:47;;;;;;;4.00;3.50;;;4.20;99.90;;;;;;5090309;28;20529;-48
2022/11/29 07:42:25;;;;;;;3.70;3.37;;;4.10;99.90;;;;;;5090223;28;20463;-47
2022/11/29 07:45:01;;;;;;;4.23;3.13;;;4.10;99.90;;;;;;5090254;28;20476;-48
2022/11/29 07:47:27;;;;;;;5.00;4.40;;;4.10;99.90;;;;;;5089974;28;20540;-48
2022/11/29 07:49:56;;;;;;;4.87;3.90;;;4.00;99.90;;;;;;5090299;28;20438;-47
2022/11/29 07:52:22;;;;;;;4.00;3.57;;;4.10;99.90;;;;;;5089971;28;20490;-49
2022/11/29 07:54:49;;;;;;;3.07;2.80;;;4.10;99.90;;;;;;5087950;28;20973;-44
2022/11/29 07:57:16;;;;;;;3.20;2.90;;;4.10;99.90;;;;;;5087537;28;20442;-48
2022/11/29 07:59:43;;;;;;;3.37;2.70;;;4.10;99.90;;;;;;5090446;28;20450;-47
2022/11/29 08:02:10;;;;;;;2.77;2.43;;;4.10;99.90;;;;;;5090676;28;20471;-47
2022/11/29 08:04:41;;;;;;;3.17;2.83;;;4.00;99.90;;;;;;5089862;28;20480;-48
2022/11/29 08:07:09;;;;;;;3.37;2.80;;;4.00;99.90;;;;;;5080892;28;20939;-47
2022/11/29 08:09:36;;;;;;;3.73;3.43;;;4.00;99.90;;;;;;5090503;28;20472;-48
2022/11/29 08:12:03;;;;;;;2.60;2.40;;;4.00;99.90;;;;;;5090122;28;21011;-47
2022/11/29 08:14:32;;;;;;;4.30;2.50;;;3.90;99.90;;;;;;5090138;28;20437;-49
2022/11/29 08:16:59;;;;;;;3.20;2.90;;;3.90;99.90;;;;;;5081597;28;20454;-47
2022/11/29 08:19:25;;;;;;;4.00;3.00;;;3.90;99.90;;;;;;5089942;28;20444;-47
2022/11/29 08:21:52;;;;;;;3.20;2.90;;;3.90;99.90;;;;;;5089225;28;20495;-47
2022/11/29 08:24:21;;;;;;;3.60;3.20;;;3.90;99.90;;;;;;5088002;28;20469;-48
2022/11/29 08:26:48;;;;;;;4.47;4.03;;;3.80;99.90;;;;;;5082582;28;20531;-47
2022/11/29 08:29:15;;;;;;;4.50;3.93;;;3.90;99.90;;;;;;5090887;28;20537;-47
2022/11/29 08:31:42;;;;;;;4.53;4.07;;;3.90;99.90;;;;;;5092487;28;20562;-47
2022/11/29 08:34:09;;;;;;;5.70;5.10;;;3.80;99.90;;;;;;5090354;28;20536;-50
2022/11/29 08:36:36;;;;;;;5.30;4.60;;;3.90;99.90;;;;;;5091213;28;20798;-47
2022/11/29 08:39:04;;;;;;;6.23;5.63;;;3.90;99.90;;;;;;5090423;28;20532;-48
2022/11/29 08:41:32;;;;;;;6.37;5.60;;;3.90;99.90;;;;;;5087845;28;20462;-47
2022/11/29 08:43:59;;;;;;;5.70;5.20;;;3.90;99.90;;;;;;5090565;28;20540;-47
2022/11/29 08:47:34;;;;;;;6.80;6.20;;;3.80;99.90;;;;;;5083379;28;20466;-47
2022/11/29 08:49:13;;;;;;;6.93;5.73;;;3.90;99.90;;;;;;5085306;28;20446;-47
2022/11/29 08:51:40;;;;;;;7.30;6.60;;;3.90;99.90;;;;;;5090974;28;20460;-47
2022/11/29 08:54:06;;;;;;;5.77;5.17;;;3.90;99.90;;;;;;5090451;28;20807;-47
2022/11/29 08:56:36;;;;;;;4.77;4.33;;;3.90;99.90;;;;;;5091473;28;20513;-47
2022/11/29 08:59:04;;;;;;;5.75;4.45;;;3.90;99.90;;;;;;5090036;28;20519;-46
2022/11/29 09:01:31;;;;;;;4.70;4.00;;;4.00;99.90;;;;;;5090535;28;20299;-47
2022/11/29 09:04:01;;;;;;;4.47;4.07;;;4.00;99.90;;;;;;5090234;28;20441;-49
2022/11/29 09:06:30;;;;;;;4.50;4.10;;;4.00;99.90;;;;;;5094286;28;20844;-48
2022/11/29 09:08:58;;;;;;;3.90;3.57;;;4.00;99.90;;;;;;5093986;28;20452;-48
2022/11/29 09:11:26;;;;;;;4.70;4.30;;;4.00;99.90;;;;;;5093575;28;21053;-50
2022/11/29 09:13:57;;;;;;;5.00;4.60;;;4.00;99.90;;;;;;5081871;28;20542;-49
2022/11/29 09:16:25;;;;;;;6.10;4.57;;;4.00;99.90;;;;;;5088787;28;20531;-49
2022/11/29 09:18:54;;;;;;;3.67;3.37;;;4.10;99.90;;;;;;5093312;28;20459;-48
2022/11/29 09:21:22;;;;;;;4.97;4.57;;;4.10;99.90;;;;;;5093274;28;20458;-47
2022/11/29 09:23:56;;;;;;;4.83;4.43;;;4.10;99.90;;;;;;5093068;28;20541;-51
2022/11/29 09:26:23;;;;;;;5.73;5.10;;;4.10;99.90;;;;;;5090945;28;20547;-47
2022/11/29 09:28:50;;;;;;;6.00;5.00;;;4.10;99.90;;;;;;5093507;28;20467;-50
2022/11/29 09:31:18;;;;;;;5.20;4.70;;;4.10;99.90;;;;;;5093359;28;20988;-47
2022/11/29 09:33:45;;;;;;;6.57;5.43;;;4.20;99.90;;;;;;5092673;28;20448;-46
2022/11/29 09:36:13;;;;;;;5.60;5.00;;;4.20;99.90;;;;;;5092923;28;20439;-46
2022/11/29 09:38:40;;;;;;;6.03;5.37;;;4.20;99.90;;;;;;5093150;28;20446;-47
2022/11/29 09:41:21;;;;;;;6.37;5.77;;;4.20;99.90;;;;;;5093043;28;20552;-46
2022/11/29 09:43:55;;;;;;;4.33;3.97;;;4.30;99.90;;;;;;5090149;28;21013;-46
2022/11/29 09:46:36;;;;;;;5.10;4.60;;;4.40;99.90;;;;;;5092227;28;20523;-47
2022/11/29 09:49:17;;;;;;;5.43;4.93;;;4.30;99.90;;;;;;5084086;28;20437;-47
2022/11/29 09:51:49;;;;;;;4.60;4.20;;;4.40;99.90;;;;;;5091960;28;20469;-47
2022/11/29 09:54:29;;;;;;;5.30;4.80;;;4.40;99.90;;;;;;5093133;28;20441;-47
2022/11/29 09:56:57;;;;;;;5.17;4.63;;;4.30;99.90;;;;;;5093420;28;20450;-48
2022/11/29 09:59:28;;;;;;;7.53;5.60;;;4.90;99.90;;;;;;5093300;28;20562;-50
2022/11/29 10:02:00;;;;;;;4.97;4.33;;;6.00;99.90;;;;;;5092419;28;20478;-47
2022/11/29 10:04:33;;;;;;;5.00;4.50;;;6.70;99.90;;;;;;5092887;28;20813;-47
2022/11/29 10:07:06;;;;;;;6.20;5.60;;;7.20;99.90;;;;;;5093425;28;20731;-47
2022/11/29 10:09:39;;;;;;;6.73;5.20;;;6.10;99.90;;;;;;5093189;28;20535;-47
2022/11/29 10:12:14;;;;;;;6.33;5.23;;;5.40;99.90;;;;;;5090282;28;20556;-47
2022/11/29 10:14:47;;;;;;;6.07;5.47;;;5.10;99.90;;;;;;5087971;28;20446;-50
2022/11/29 10:17:29;;;;;;;6.43;4.90;;;4.90;99.90;;;;;;5091467;28;20435;-47
2022/11/29 10:20:02;;;;;;;5.43;4.93;;;4.70;99.90;;;;;;5091858;28;20526;-47
2022/11/29 10:22:39;;;;;;;5.20;4.67;;;4.70;99.90;;;;;;5092154;28;20497;-47
2022/11/29 10:25:09;;;;;;;5.83;5.33;;;4.70;99.90;;;;;;5091691;28;20558;-47
2022/11/29 10:27:40;;;;;;;4.90;4.40;;;5.30;99.90;;;;;;5090931;28;20440;-50
2022/11/29 10:30:13;;;;;;;8.20;5.40;;;6.10;99.90;;;;;;5091726;28;20439;-46
2022/11/29 10:32:44;;;;;;;6.00;5.40;;;5.50;99.90;;;;;;5091317;28;20611;-49
2022/11/29 10:35:15;;;;;;;5.97;5.33;;;5.00;99.90;;;;;;5091255;28;20936;-48
2022/11/29 10:37:42;;;;;;;4.93;4.43;;;5.00;99.90;;;;;;5091622;28;20446;-47
2022/11/29 10:40:14;;;;;;;4.97;4.47;;;6.10;99.90;;;;;;5091152;28;20437;-47
2022/11/29 10:42:51;;;;;;;3.73;3.43;;;6.80;99.90;;;;;;5091954;28;20885;-47
2022/11/29 10:45:25;;;;;;;6.47;4.40;;;6.30;99.90;;;;;;5091518;28;20481;-46
2022/11/29 10:47:56;;;;;;;4.40;4.10;;;5.60;99.90;;;;;;5091283;28;20452;-47
2022/11/29 10:50:25;;;;;;;6.40;5.80;;;5.30;99.90;;;;;;5091403;28;20447;-47
2022/11/29 10:52:53;;;;;;;7.43;4.80;;;5.70;99.90;;;;;;5091088;28;20541;-45
2022/11/29 10:55:22;;;;;;;5.70;5.20;;;5.30;99.90;;;;;;5089262;28;20900;-48
2022/11/29 10:58:08;;;;;;;7.03;5.60;;;5.10;99.90;;;;;;5088730;28;21017;-47
2022/11/29 11:00:50;;;;;;;6.73;5.50;;;4.90;99.90;;;;;;5087139;28;20498;-47
2022/11/29 11:03:35;;;;;;;5.47;4.97;;;4.70;99.90;;;;;;5085691;28;20444;-47
2022/11/29 11:06:07;;;;;;;7.50;5.50;;;4.60;99.90;;;;;;5085850;28;20616;-49
2022/11/29 11:08:35;;;;;;;5.57;5.07;;;4.60;99.90;;;;;;5084463;28;20530;-50
2022/11/29 11:11:04;;;;;;;5.10;4.70;;;4.60;99.90;;;;;;5089011;28;20579;-47
2022/11/29 11:13:32;;;;;;;5.90;5.40;;;4.60;99.90;;;;;;5089794;28;20533;-47
2022/11/29 11:16:09;;;;;;;6.03;5.43;;;4.60;99.90;;;;;;5084940;28;20652;-49
2022/11/29 11:18:37;;;;;;;5.53;5.03;;;4.60;99.90;;;;;;5085965;28;20443;-48
2022/11/29 11:21:07;;;;;;;5.17;4.67;;;4.50;99.90;;;;;;5088971;28;20546;-47
2022/11/29 11:23:37;;;;;;;38.37;27.73;;;4.50;99.90;;;;;;5088690;28;20520;-47
2022/11/29 11:26:06;;;;;;;9.37;8.47;;;4.40;99.90;;;;;;5090444;28;20933;-47
2022/11/29 11:28:38;;;;;;;4.97;4.50;;;4.40;99.90;;;;;;5090081;28;20442;-47
2022/11/29 11:31:07;;;;;;;4.90;4.40;;;4.50;99.90;;;;;;5091570;28;20560;-47
2022/11/29 11:33:37;;;;;;;4.33;3.93;;;4.60;99.90;;;;;;5090258;28;20527;-46
2022/11/29 11:36:08;;;;;;;5.93;5.43;;;4.60;99.90;;;;;;5081744;28;20455;-48
2022/11/29 11:38:36;;;;;;;5.60;5.10;;;4.50;99.90;;;;;;5088928;28;20970;-47
2022/11/29 11:41:06;;;;;;;4.70;4.30;;;4.60;99.90;;;;;;5091061;28;20556;-47
2022/11/29 11:43:34;;;;;;;5.10;4.60;;;4.30;99.90;;;;;;5090682;28;20537;-47
2022/11/29 11:46:01;;;;;;;5.10;4.70;;;4.30;99.90;;;;;;5089149;28;20472;-46
2022/11/29 11:48:28;;;;;;;5.80;5.27;;;4.50;99.90;;;;;;5089563;28;20531;-47
2022/11/29 11:51:00;;;;;;;6.00;5.50;;;4.50;99.90;;;;;;5090538;28;21061;-47
2022/11/29 11:53:29;;;;;;;4.43;4.03;;;4.60;99.90;;;;;;5090021;28;20444;-47
2022/11/29 11:56:00;;;;;;;4.63;4.23;;;4.50;99.90;;;;;;5090566;28;20532;-47
2022/11/29 11:58:29;;;;;;;3.93;3.53;;;4.40;99.90;;;;;;5090539;28;20475;-46
2022/11/29 12:00:58;;;;;;;4.87;4.37;;;4.50;99.90;;;;;;5090865;28;20542;-48
2022/11/29 12:03:43;;;;;;;4.10;3.80;;;4.50;99.90;;;;;;5090247;28;20518;-48
2022/11/29 12:06:28;;;;;;;3.07;2.77;;;4.40;99.90;;;;;;5089101;28;20894;-49
2022/11/29 12:09:02;;;;;;;4.20;3.90;;;4.30;99.90;;;;;;5089997;28;20819;-47
2022/11/29 12:11:33;;;;;;;5.80;5.27;;;4.30;99.90;;;;;;5087683;28;21029;-49
2022/11/29 12:14:01;;;;;;;5.60;5.10;;;4.20;99.90;;;;;;5088034;28;20510;-48
2022/11/29 12:16:32;;;;;;;4.80;4.20;;;4.40;99.90;;;;;;5089069;28;20451;-50
2022/11/29 12:19:04;;;;;;;4.60;4.30;;;4.40;99.90;;;;;;5089186;28;20900;-47
2022/11/29 12:21:38;;;;;;;4.07;3.63;;;4.20;99.90;;;;;;5089456;28;20483;-50
2022/11/29 12:24:15;;;;;;;5.23;4.83;;;4.10;99.90;;;;;;5090689;28;20476;-48
2022/11/29 12:26:43;;;;;;;4.43;4.03;;;4.20;99.90;;;;;;5091058;28;21075;-47
2022/11/29 12:29:14;;;;;;;3.50;3.20;;;4.00;99.90;;;;;;5090995;28;20964;-47
2022/11/29 12:31:53;;;;;;;4.37;4.07;;;4.00;99.90;;;;;;5090534;28;20476;-47
2022/11/29 12:34:47;;;;;;;4.40;4.00;;;4.00;99.90;;;;;;5090424;28;20460;-47
2022/11/29 12:37:25;;;;;;;4.93;4.53;;;4.00;99.90;;;;;;5091221;28;20443;-49
2022/11/29 12:39:57;;;;;;;4.87;4.50;;;4.10;99.90;;;;;;5091786;28;20540;-47
2022/11/29 12:42:35;;;;;;;4.60;4.20;;;4.10;99.90;;;;;;5094820;28;20989;-47
2022/11/29 12:45:19;;;;;;;4.63;4.30;;;4.10;99.90;;;;;;5093531;28;20450;-49
2022/11/29 12:47:58;;;;;;;4.40;4.03;;;4.20;99.90;;;;;;5094213;28;20934;-47
2022/11/29 12:50:39;;;;;;;5.80;5.30;;;4.30;99.90;;;;;;5094554;28;20969;-48
2022/11/29 12:53:20;;;;;;;8.47;7.63;;;4.30;99.90;;;;;;5092789;28;20863;-49
2022/11/29 12:55:55;;;;;;;5.50;4.77;;;4.40;99.90;;;;;;5091315;28;20537;-47
2022/11/29 12:58:32;;;;;;;5.50;4.97;;;4.40;99.90;;;;;;5090925;28;20456;-47
2022/11/29 13:01:11;;;;;;;4.40;3.93;;;4.30;99.90;;;;;;5079794;28;20554;-49
2022/11/29 13:03:46;;;;;;;5.43;4.90;;;4.30;99.90;;;;;;5073406;28;20533;-47
2022/11/29 13:06:24;;;;;;;5.37;4.97;;;4.40;99.90;;;;;;5086218;28;20782;-47
2022/11/29 13:09:16;;;;;;;5.23;4.83;;;4.40;99.90;;;;;;5093014;28;20553;-47
2022/11/29 13:11:48;;;;;;;5.23;4.73;;;4.40;99.90;;;;;;5089043;28;20468;-46
2022/11/29 13:14:21;;;;;;;4.93;4.53;;;4.40;99.90;;;;;;5092228;28;20438;-47
2022/11/29 13:16:55;;;;;;;7.43;6.77;;;4.40;99.90;;;;;;5093249;28;20942;-48
2022/11/29 13:19:29;;;;;;;5.30;4.90;;;4.10;99.90;;;;;;5093145;28;20437;-47
2022/11/29 13:22:05;;;;;;;5.27;4.77;;;4.10;99.90;;;;;;5092804;28;20494;-47
2022/11/29 13:24:37;;;;;;;5.03;4.63;;;4.00;99.90;;;;;;5093251;28;20472;-47
2022/11/29 13:27:05;;;;;;;4.97;4.53;;;4.10;99.90;;;;;;5093220;28;20564;-47